West Peterborough, New Hampshire
Current Conditions -  °F | °C
As of 5:52 AM on Monday 22 Dec 2014 (Local Time) from KAFN Reporting Station
Overcast Overcast  
Wind Chill: 29°   Ceiling: 400
Heat Index: 29°   Visibility: 10mi
Dew Point: 27°   Wind: 3mph
Humidity: 92%   Direction: NA
Pressure: 30.34"   Gusts: NA
Location:  42.89°N, 71.99°W
Report Text: KAFN 221052Z AUTO VRB03KT 10SM BKN004 OVC038 M02/M03 A3034 RMK AO2 SLP291 T10171028
Loading
Personal Weather Stations






























Interactive Weather Map New forecast layout! Learn more

10-Day Weather Forecast

Advertisements
Track Severe Weather on mobile